Time;durP1;ratioP1;P1;durP2;ratioP2;P2;SDS_P1;SDS_P2;PMS_P1;PMS_P2;Temp;Humidity;BMP_temperature;BMP_pressure;BME280_temperature;BME280_humidity;BME280_pressure;Samples;Min_cycle;Max_cycle;Signal;HPM_P1;HPM_P2
2023/04/12 00:01:30;;;;;;;6.32;4.55;;;10.30;99.90;;;;;;4958263;29;20054;-73
2023/04/12 00:03:55;;;;;;;9.15;5.15;;;10.30;99.90;;;;;;4960311;28;20019;-73
2023/04/12 00:06:30;;;;;;;10.55;4.70;;;10.20;99.90;;;;;;4960145;29;20028;-73
2023/04/12 00:09:00;;;;;;;6.82;4.47;;;10.20;99.90;;;;;;4961426;28;20027;-73
2023/04/12 00:11:27;;;;;;;8.23;4.72;;;10.20;99.90;;;;;;4960456;29;20031;-73
2023/04/12 00:13:53;;;;;;;6.05;3.97;;;10.10;99.90;;;;;;4956221;28;20020;-73
2023/04/12 00:16:19;;;;;;;7.75;5.13;;;10.10;99.90;;;;;;4961656;28;20031;-73
2023/04/12 00:18:45;;;;;;;6.22;4.82;;;10.00;99.90;;;;;;4956110;29;20019;-73
2023/04/12 00:21:10;;;;;;;6.53;4.70;;;10.00;99.90;;;;;;4961027;28;20051;-72
2023/04/12 00:23:39;;;;;;;7.20;5.03;;;9.90;99.90;;;;;;4961211;29;20030;-70
2023/04/12 00:26:05;;;;;;;10.18;5.20;;;9.90;99.90;;;;;;4961207;28;20054;-70
2023/04/12 00:28:31;;;;;;;8.02;4.80;;;9.90;99.90;;;;;;4961072;29;20395;-70
2023/04/12 00:30:57;;;;;;;7.63;5.05;;;9.90;99.90;;;;;;4961171;28;20035;-70
2023/04/12 00:33:23;;;;;;;8.52;4.35;;;9.90;99.90;;;;;;4961052;28;20385;-70
2023/04/12 00:35:48;;;;;;;6.85;4.65;;;9.80;99.90;;;;;;4960860;29;20031;-70
2023/04/12 00:38:16;;;;;;;7.07;5.10;;;9.90;99.90;;;;;;4959573;28;20133;-70
2023/04/12 00:40:42;;;;;;;10.15;5.03;;;9.80;99.90;;;;;;4961185;29;20059;-70
2023/04/12 00:43:09;;;;;;;10.27;5.80;;;9.80;99.90;;;;;;4960951;28;20019;-70
2023/04/12 00:45:36;;;;;;;6.10;4.95;;;9.80;99.90;;;;;;4960972;28;20038;-71
2023/04/12 00:48:04;;;;;;;5.00;4.50;;;9.70;99.90;;;;;;4959278;28;20035;-71
2023/04/12 00:50:30;;;;;;;7.72;5.13;;;9.70;99.90;;;;;;4960790;28;20486;-70
2023/04/12 00:52:57;;;;;;;7.53;4.55;;;9.70;99.90;;;;;;4960686;29;20046;-70
2023/04/12 00:55:23;;;;;;;5.13;4.32;;;9.70;99.90;;;;;;4959520;28;20082;-70
2023/04/12 00:57:50;;;;;;;7.32;5.22;;;9.60;99.90;;;;;;4960441;28;20039;-70
2023/04/12 01:00:16;;;;;;;6.50;4.47;;;9.60;99.90;;;;;;4960659;28;20023;-71
2023/04/12 01:02:45;;;;;;;7.60;5.20;;;9.60;99.90;;;;;;4960631;28;20451;-71
2023/04/12 01:05:20;;;;;;;6.68;4.55;;;9.50;99.90;;;;;;4959098;28;20038;-71
2023/04/12 01:07:55;;;;;;;5.68;4.70;;;9.50;99.90;;;;;;4959195;28;20129;-70
2023/04/12 01:10:20;;;;;;;5.75;5.05;;;9.50;99.90;;;;;;4960420;28;20027;-70
2023/04/12 01:13:09;;;;;;;7.25;5.35;;;9.40;99.90;;;;;;4960425;29;20023;-70
2023/04/12 01:15:40;;;;;;;7.85;5.32;;;9.40;99.90;;;;;;4953256;29;20033;-70
2023/04/12 01:18:16;;;;;;;5.53;4.68;;;9.40;99.90;;;;;;4958869;29;20062;-71
2023/04/12 01:20:50;;;;;;;7.43;5.15;;;9.50;99.90;;;;;;4959920;28;20059;-71
2023/04/12 01:23:57;;;;;;;10.00;5.75;;;9.40;99.90;;;;;;4960162;28;20393;-70
2023/04/12 01:26:32;;;;;;;10.80;5.45;;;9.40;99.90;;;;;;4958766;28;20023;-72
2023/04/12 01:29:01;;;;;;;9.57;5.55;;;9.40;99.90;;;;;;4960045;29;20019;-72
2023/04/12 01:31:30;;;;;;;7.72;5.50;;;9.40;99.90;;;;;;4958702;28;20448;-72
2023/04/12 01:33:57;;;;;;;8.30;4.95;;;9.40;99.90;;;;;;4959994;29;20023;-71
2023/04/12 01:36:26;;;;;;;9.77;5.38;;;9.30;99.90;;;;;;4959705;28;20042;-70
2023/04/12 01:38:53;;;;;;;6.95;4.82;;;9.30;99.90;;;;;;4958681;29;20038;-70
2023/04/12 01:41:19;;;;;;;7.00;5.10;;;9.20;99.90;;;;;;4958284;28;20472;-70
2023/04/12 01:43:46;;;;;;;8.70;5.28;;;9.10;99.90;;;;;;4960067;29;20019;-72
2023/04/12 01:46:15;;;;;;;7.68;5.20;;;9.10;99.90;;;;;;4959598;28;20023;-70
2023/04/12 01:48:53;;;;;;;8.85;5.25;;;9.10;99.90;;;;;;4959797;29;20023;-70
2023/04/12 01:51:37;;;;;;;8.88;5.22;;;9.10;99.90;;;;;;4955101;28;20105;-70
2023/04/12 01:54:10;;;;;;;8.20;5.47;;;9.10;99.90;;;;;;4959414;28;20103;-70
2023/04/12 01:56:38;;;;;;;8.60;5.57;;;9.10;99.90;;;;;;4959438;28;20107;-70
2023/04/12 01:59:05;;;;;;;6.22;5.22;;;9.00;99.90;;;;;;4959377;28;20395;-70
2023/04/12 02:01:30;;;;;;;8.32;5.97;;;9.00;99.90;;;;;;4959604;29;20047;-71
2023/04/12 02:04:00;;;;;;;7.10;5.57;;;9.00;99.90;;;;;;4959304;28;20436;-71
2023/04/12 02:06:26;;;;;;;7.17;5.33;;;9.00;99.90;;;;;;4959240;28;20019;-71
2023/04/12 02:09:01;;;;;;;6.95;5.10;;;9.00;99.90;;;;;;4958521;28;20034;-71
2023/04/12 02:11:27;;;;;;;6.38;5.50;;;8.90;99.90;;;;;;4959403;29;20031;-72
2023/04/12 02:13:53;;;;;;;9.70;5.22;;;8.90;99.90;;;;;;4959258;28;20020;-72
2023/04/12 02:16:19;;;;;;;5.25;4.75;;;8.90;99.90;;;;;;4957870;28;20029;-71
2023/04/12 02:18:56;;;;;;;8.82;5.65;;;8.90;99.90;;;;;;4958912;29;20034;-71
2023/04/12 02:21:22;;;;;;;11.07;5.88;;;8.80;99.90;;;;;;4957554;28;20047;-71
2023/04/12 02:23:47;;;;;;;6.15;5.55;;;8.80;99.90;;;;;;4958928;28;20039;-72
2023/04/12 02:26:13;;;;;;;8.10;6.15;;;8.80;99.90;;;;;;4957869;28;20042;-71
2023/04/12 02:28:39;;;;;;;7.15;5.57;;;8.70;99.90;;;;;;4958628;28;20478;-72
2023/04/12 02:31:05;;;;;;;6.93;5.32;;;8.70;99.90;;;;;;4957364;28;20085;-72
2023/04/12 02:33:32;;;;;;;9.57;5.53;;;8.70;99.90;;;;;;4958876;28;20027;-72
2023/04/12 02:35:58;;;;;;;8.38;6.10;;;8.60;99.90;;;;;;4958519;28;20023;-71
2023/04/12 02:38:24;;;;;;;5.82;5.30;;;8.60;99.90;;;;;;4957516;28;20038;-71
2023/04/12 02:40:49;;;;;;;6.13;5.43;;;8.50;99.90;;;;;;4958683;28;20388;-71
2023/04/12 02:43:15;;;;;;;10.30;5.88;;;8.50;99.90;;;;;;4958693;28;20037;-72
2023/04/12 02:45:41;;;;;;;6.90;5.90;;;8.50;99.90;;;;;;4958720;28;20055;-72
2023/04/12 02:48:07;;;;;;;7.25;6.18;;;8.50;99.90;;;;;;4958685;28;20035;-72
2023/04/12 02:50:33;;;;;;;7.43;5.55;;;8.50;99.90;;;;;;4958463;28;20035;-72
2023/04/12 02:52:58;;;;;;;8.45;5.70;;;8.50;99.90;;;;;;4958724;28;20099;-72
2023/04/12 02:55:24;;;;;;;8.93;5.80;;;8.50;99.90;;;;;;4958452;28;20031;-72
2023/04/12 02:57:50;;;;;;;6.18;5.25;;;8.50;99.90;;;;;;4957350;29;20031;-72
2023/04/12 03:00:16;;;;;;;10.05;6.38;;;8.50;99.90;;;;;;4958339;28;20019;-72
2023/04/12 03:02:42;;;;;;;5.68;5.10;;;8.40;99.90;;;;;;4958554;28;20039;-72
2023/04/12 03:05:09;;;;;;;7.10;5.30;;;8.50;99.90;;;;;;4957741;28;20039;-72
2023/04/12 03:07:35;;;;;;;7.63;5.43;;;8.40;99.90;;;;;;4958047;29;20163;-72
2023/04/12 03:10:01;;;;;;;7.07;5.65;;;8.40;99.90;;;;;;4958423;28;20496;-72
2023/04/12 03:12:27;;;;;;;19.48;5.88;;;8.30;99.90;;;;;;4958601;29;20031;-72
2023/04/12 03:14:53;;;;;;;7.43;6.05;;;8.30;99.90;;;;;;4958286;28;20016;-72
2023/04/12 03:17:19;;;;;;;8.55;6.53;;;8.30;99.90;;;;;;4958234;28;20098;-72
2023/04/12 03:19:45;;;;;;;9.18;6.53;;;8.30;99.90;;;;;;4958360;28;20028;-72
2023/04/12 03:22:11;;;;;;;8.48;5.43;;;8.30;99.90;;;;;;4958230;28;20028;-72
2023/04/12 03:24:36;;;;;;;7.65;5.57;;;8.20;99.90;;;;;;4958423;28;20038;-71
2023/04/12 03:27:03;;;;;;;6.53;5.28;;;8.20;99.90;;;;;;4956581;28;20499;-72
2023/04/12 03:29:30;;;;;;;7.68;6.07;;;8.20;99.90;;;;;;4958508;28;20051;-72
2023/04/12 03:31:59;;;;;;;8.85;5.40;;;8.10;99.90;;;;;;4958277;28;20146;-72
2023/04/12 03:34:30;;;;;;;9.73;7.20;;;8.10;99.90;;;;;;4955912;28;20027;-72
2023/04/12 03:36:59;;;;;;;10.13;6.28;;;8.10;99.90;;;;;;4958074;28;20058;-72
2023/04/12 03:39:24;;;;;;;8.20;6.63;;;8.10;99.90;;;;;;4959983;28;20027;-71
2023/04/12 03:41:51;;;;;;;8.75;6.10;;;8.10;99.90;;;;;;4960716;29;20090;-72
2023/04/12 03:44:17;;;;;;;6.93;6.22;;;8.10;99.90;;;;;;4960721;29;20038;-71
2023/04/12 03:46:43;;;;;;;9.45;6.03;;;8.10;99.90;;;;;;4960603;28;20023;-72
2023/04/12 03:49:10;;;;;;;7.70;5.97;;;8.10;99.90;;;;;;4961806;28;20550;-72
2023/04/12 03:51:41;;;;;;;10.07;6.03;;;8.00;99.90;;;;;;4960374;29;20079;-72
2023/04/12 03:54:07;;;;;;;7.15;5.95;;;8.00;99.90;;;;;;4961914;28;20031;-72
2023/04/12 03:56:33;;;;;;;8.35;6.93;;;8.00;99.90;;;;;;4961704;28;20112;-72
2023/04/12 03:58:59;;;;;;;12.88;7.30;;;8.00;99.90;;;;;;4960454;28;20525;-72
2023/04/12 04:01:24;;;;;;;7.57;6.75;;;8.00;99.90;;;;;;4961723;28;20043;-72
2023/04/12 04:03:50;;;;;;;8.73;6.50;;;8.00;99.90;;;;;;4961561;28;20506;-72
2023/04/12 04:06:17;;;;;;;12.55;7.40;;;8.00;99.90;;;;;;4959985;28;20019;-72
2023/04/12 04:08:43;;;;;;;7.50;6.25;;;8.00;99.90;;;;;;4961430;28;20060;-71
2023/04/12 04:11:11;;;;;;;15.60;7.28;;;8.10;99.90;;;;;;4959881;29;20038;-72
2023/04/12 04:13:36;;;;;;;10.57;7.20;;;8.10;99.90;;;;;;4961288;28;20066;-71
2023/04/12 04:16:04;;;;;;;7.53;6.20;;;8.10;99.90;;;;;;4961416;29;20043;-71
2023/04/12 04:18:30;;;;;;;7.38;6.60;;;8.00;99.90;;;;;;4961171;28;20073;-71
2023/04/12 04:20:56;;;;;;;7.10;6.10;;;8.00;99.90;;;;;;4960950;29;20126;-72
2023/04/12 04:23:24;;;;;;;7.72;6.60;;;8.10;99.90;;;;;;4954993;29;20110;-72
2023/04/12 04:25:52;;;;;;;9.60;6.75;;;8.10;99.90;;;;;;4961333;29;20396;-72
2023/04/12 04:28:18;;;;;;;12.73;6.85;;;8.10;99.90;;;;;;4958876;28;20027;-72
2023/04/12 04:30:45;;;;;;;8.82;6.68;;;8.00;99.90;;;;;;4961224;28;20034;-72
2023/04/12 04:33:11;;;;;;;12.02;7.88;;;8.10;99.90;;;;;;4960983;28;20078;-71
2023/04/12 04:35:42;;;;;;;9.50;7.03;;;8.00;99.90;;;;;;4960687;29;20027;-72
2023/04/12 04:38:08;;;;;;;10.30;7.10;;;8.00;99.90;;;;;;4960995;28;20392;-72
2023/04/12 04:40:37;;;;;;;11.80;7.68;;;8.00;99.90;;;;;;4961283;28;20027;-72
2023/04/12 04:43:02;;;;;;;9.77;7.28;;;8.10;99.90;;;;;;4959808;28;20026;-72
2023/04/12 04:45:29;;;;;;;8.45;7.10;;;8.10;99.90;;;;;;4961176;28;20483;-72
2023/04/12 04:47:55;;;;;;;16.95;7.30;;;8.00;99.90;;;;;;4960842;28;20102;-72
2023/04/12 04:50:22;;;;;;;7.00;5.63;;;8.00;99.90;;;;;;4959481;28;20503;-72
2023/04/12 04:52:49;;;;;;;11.25;7.03;;;8.00;99.90;;;;;;4960854;29;20394;-72
2023/04/12 04:55:20;;;;;;;7.35;6.53;;;8.00;99.90;;;;;;4961025;28;20380;-72
2023/04/12 04:57:46;;;;;;;8.30;7.00;;;7.90;99.90;;;;;;4960739;28;20028;-72
2023/04/12 05:00:12;;;;;;;9.57;6.65;;;8.00;99.90;;;;;;4960862;28;20148;-72
2023/04/12 05:02:41;;;;;;;11.73;6.80;;;7.90;99.90;;;;;;4959392;28;20054;-72
2023/04/12 05:05:08;;;;;;;11.38;7.28;;;7.90;99.90;;;;;;4960276;28;20030;-72
2023/04/12 05:07:35;;;;;;;11.88;7.20;;;7.80;99.90;;;;;;4960512;28;20051;-71
2023/04/12 05:10:04;;;;;;;12.77;7.28;;;7.80;99.90;;;;;;4960513;28;20106;-72
2023/04/12 05:12:30;;;;;;;14.07;7.93;;;7.80;99.90;;;;;;4959249;29;20031;-71
2023/04/12 05:14:56;;;;;;;9.02;6.85;;;7.80;99.90;;;;;;4959142;28;20047;-72
2023/04/12 05:17:22;;;;;;;10.82;7.30;;;7.80;99.90;;;;;;4960354;29;20037;-71
2023/04/12 05:19:47;;;;;;;8.40;6.90;;;7.80;99.90;;;;;;4960301;28;20046;-72
2023/04/12 05:22:13;;;;;;;11.50;7.30;;;7.80;99.90;;;;;;4958824;28;20555;-71
2023/04/12 05:24:39;;;;;;;11.60;7.45;;;7.80;99.90;;;;;;4958961;28;20071;-72
2023/04/12 05:27:05;;;;;;;8.02;6.28;;;7.80;99.90;;;;;;4960229;28;20102;-72
2023/04/12 05:29:31;;;;;;;9.52;7.47;;;7.80;99.90;;;;;;4959382;28;20020;-72
2023/04/12 05:31:58;;;;;;;7.82;6.70;;;7.90;99.90;;;;;;4958856;28;20039;-72
2023/04/12 05:34:23;;;;;;;7.82;6.82;;;7.90;99.90;;;;;;4960151;28;20033;-72
2023/04/12 05:36:49;;;;;;;13.45;6.78;;;7.90;99.90;;;;;;4959818;28;20090;-72
2023/04/12 05:39:15;;;;;;;9.88;7.18;;;7.90;99.90;;;;;;4959809;28;20031;-72
2023/04/12 05:41:40;;;;;;;11.20;7.05;;;7.90;99.90;;;;;;4958665;28;20110;-73
2023/04/12 05:44:06;;;;;;;8.15;7.05;;;7.90;99.90;;;;;;4959945;29;20522;-71
2023/04/12 05:46:32;;;;;;;11.00;6.93;;;8.00;99.90;;;;;;4957197;29;20050;-72
2023/04/12 05:48:58;;;;;;;14.25;7.40;;;8.00;99.90;;;;;;4958587;28;20031;-72
2023/04/12 05:51:24;;;;;;;12.70;8.20;;;8.10;99.90;;;;;;4959294;28;20114;-72
2023/04/12 05:53:50;;;;;;;9.98;7.38;;;8.10;99.90;;;;;;4959702;28;20476;-72
2023/04/12 05:56:16;;;;;;;8.75;7.50;;;8.20;99.90;;;;;;4958116;28;20027;-72
2023/04/12 05:58:42;;;;;;;8.30;7.50;;;8.20;99.90;;;;;;4959460;28;20058;-72
2023/04/12 06:01:07;;;;;;;10.77;7.50;;;8.30;99.90;;;;;;4957638;28;20130;-72
2023/04/12 06:03:33;;;;;;;13.05;7.72;;;8.50;99.90;;;;;;4959233;28;20070;-72
2023/04/12 06:06:01;;;;;;;9.70;7.55;;;8.40;99.90;;;;;;4959271;28;20049;-72
2023/04/12 06:08:28;;;;;;;10.65;7.75;;;8.50;99.90;;;;;;4957930;28;20100;-72
2023/04/12 06:10:54;;;;;;;7.35;6.65;;;8.60;99.90;;;;;;4957108;28;20028;-72
2023/04/12 06:13:20;;;;;;;8.50;7.18;;;8.70;99.90;;;;;;4957997;29;20032;-72
2023/04/12 06:15:45;;;;;;;7.55;6.47;;;8.70;99.90;;;;;;4959287;28;20042;-72
2023/04/12 06:18:11;;;;;;;10.40;6.75;;;8.80;99.90;;;;;;4958866;29;20023;-72
2023/04/12 06:20:40;;;;;;;11.93;6.45;;;9.00;99.90;;;;;;4958787;28;20057;-72
2023/04/12 06:23:06;;;;;;;12.95;6.88;;;9.10;99.90;;;;;;4959265;29;20098;-72
2023/04/12 06:25:32;;;;;;;11.88;6.78;;;9.20;99.90;;;;;;4958874;28;20050;-72
2023/04/12 06:27:58;;;;;;;10.65;6.90;;;9.30;99.90;;;;;;4958990;29;20023;-72
2023/04/12 06:30:24;;;;;;;9.48;6.47;;;9.50;99.90;;;;;;4959090;29;20034;-72
2023/04/12 06:32:50;;;;;;;9.93;7.07;;;9.70;99.90;;;;;;4958903;28;20053;-72
2023/04/12 06:35:15;;;;;;;7.95;6.43;;;9.80;99.90;;;;;;4957381;29;20491;-72
2023/04/12 06:37:41;;;;;;;10.38;6.50;;;10.00;99.90;;;;;;4958808;28;20030;-72
2023/04/12 06:40:08;;;;;;;13.00;6.88;;;10.20;99.90;;;;;;4958852;29;20062;-72
2023/04/12 06:42:33;;;;;;;11.65;7.07;;;10.50;99.90;;;;;;4957482;28;20106;-71
2023/04/12 06:44:59;;;;;;;13.32;7.25;;;10.70;99.90;;;;;;4957438;28;20118;-72
2023/04/12 06:47:25;;;;;;;10.55;7.22;;;11.00;99.90;;;;;;4957589;29;20550;-72
2023/04/12 06:49:51;;;;;;;7.93;6.55;;;11.40;99.90;;;;;;4958542;28;20090;-72
2023/04/12 06:52:17;;;;;;;9.45;6.50;;;11.70;99.90;;;;;;4958558;28;20500;-72
2023/04/12 06:54:43;;;;;;;11.40;8.27;;;11.90;99.90;;;;;;4956299;28;20448;-72
2023/04/12 06:57:10;;;;;;;10.38;6.32;;;12.10;99.90;;;;;;4958819;28;20413;-73
2023/04/12 06:59:36;;;;;;;10.75;6.15;;;12.20;99.90;;;;;;4958149;28;20026;-72
2023/04/12 07:02:01;;;;;;;8.95;6.10;;;12.40;99.90;;;;;;4958733;28;20031;-73
2023/04/12 07:04:27;;;;;;;10.52;6.55;;;12.50;99.90;;;;;;4944894;28;20027;-72
2023/04/12 07:06:52;;;;;;;11.40;6.28;;;12.50;99.90;;;;;;4965205;28;20098;-72
2023/04/12 07:09:18;;;;;;;11.68;6.65;;;12.60;99.90;;;;;;4965922;28;20453;-72
2023/04/12 07:11:44;;;;;;;9.00;6.35;;;12.50;99.90;;;;;;4965201;28;20046;-72
2023/04/12 07:14:09;;;;;;;9.55;6.68;;;12.60;99.90;;;;;;4963728;28;20118;-72
2023/04/12 07:16:35;;;;;;;10.93;6.43;;;12.70;99.90;;;;;;4973893;28;20506;-72
2023/04/12 07:19:01;;;;;;;9.75;6.75;;;12.70;99.90;;;;;;4970103;28;20086;-72
2023/04/12 07:21:27;;;;;;;8.40;6.35;;;12.80;99.90;;;;;;4971988;28;20216;-73
2023/04/12 07:23:52;;;;;;;7.75;6.38;;;12.80;99.90;;;;;;4966912;28;20023;-72
2023/04/12 07:26:18;;;;;;;8.75;6.90;;;12.90;99.90;;;;;;4970793;28;20038;-73
2023/04/12 07:28:44;;;;;;;10.98;6.93;;;12.80;99.90;;;;;;4966566;28;20043;-71
2023/04/12 07:31:10;;;;;;;7.45;5.82;;;12.90;99.90;;;;;;4981383;28;20028;-72
2023/04/12 07:33:36;;;;;;;13.35;6.20;;;12.80;99.90;;;;;;4964230;28;20030;-72
2023/04/12 07:36:02;;;;;;;14.63;6.28;;;12.90;99.90;;;;;;4976677;28;20030;-71
2023/04/12 07:38:28;;;;;;;16.48;7.25;;;13.00;99.90;;;;;;4968159;28;20530;-71
2023/04/12 07:40:55;;;;;;;10.20;5.68;;;12.90;99.90;;;;;;4976543;28;20027;-72
2023/04/12 07:43:21;;;;;;;9.52;6.40;;;13.10;99.90;;;;;;4968288;28;20074;-72
2023/04/12 07:45:46;;;;;;;9.38;5.88;;;13.10;99.90;;;;;;4975748;28;20482;-72
2023/04/12 07:48:13;;;;;;;11.07;5.75;;;13.20;99.90;;;;;;4975477;28;20038;-72
2023/04/12 07:50:40;;;;;;;13.10;6.45;;;13.30;99.90;;;;;;4975678;28;20033;-72
2023/04/12 07:53:26;;;;;;;10.52;5.68;;;13.50;99.90;;;;;;4961379;28;20043;-71
2023/04/12 07:55:53;;;;;;;9.85;6.40;;;13.70;99.90;;;;;;4966637;28;20027;-72
2023/04/12 07:58:20;;;;;;;12.80;6.55;;;13.90;99.90;;;;;;4967599;28;20541;-72
2023/04/12 08:00:46;;;;;;;8.48;5.10;;;13.70;99.90;;;;;;4967260;28;20051;-72
2023/04/12 08:03:13;;;;;;;13.10;5.50;;;13.80;99.90;;;;;;4969112;28;20023;-72
2023/04/12 08:05:39;;;;;;;12.75;5.68;;;13.90;99.90;;;;;;4968452;28;20038;-72
2023/04/12 08:08:05;;;;;;;8.23;6.07;;;13.90;99.90;;;;;;4974011;28;20440;-72
2023/04/12 08:10:31;;;;;;;12.15;5.90;;;13.90;99.90;;;;;;4972011;28;20058;-72
2023/04/12 08:12:57;;;;;;;11.65;5.95;;;14.00;99.90;;;;;;4967318;28;20468;-72
2023/04/12 08:15:23;;;;;;;9.95;5.45;;;14.10;99.90;;;;;;4974158;28;20074;-71
2023/04/12 08:17:49;;;;;;;8.27;5.95;;;14.30;99.90;;;;;;4957521;28;20500;-71
2023/04/12 08:20:15;;;;;;;9.07;5.18;;;14.50;99.90;;;;;;4973287;28;20042;-71
2023/04/12 08:22:42;;;;;;;11.05;5.50;;;14.70;99.90;;;;;;4972416;28;20110;-71
2023/04/12 08:25:09;;;;;;;10.75;5.43;;;14.50;99.90;;;;;;4971998;28;20051;-71
2023/04/12 08:27:35;;;;;;;7.75;5.68;;;14.70;99.90;;;;;;4968745;28;20105;-71
2023/04/12 08:30:00;;;;;;;10.07;5.30;;;14.80;99.90;;;;;;4973957;28;20061;-71
2023/04/12 08:32:26;;;;;;;12.77;4.85;;;14.70;99.90;;;;;;4970417;28;20030;-72
2023/04/12 08:34:52;;;;;;;10.05;4.20;;;14.70;99.90;;;;;;4968354;28;20372;-72
2023/04/12 08:37:17;;;;;;;9.82;5.00;;;14.80;99.90;;;;;;4969504;28;20077;-71
2023/04/12 08:39:43;;;;;;;13.32;5.57;;;14.80;99.90;;;;;;4967934;28;20138;-72
2023/04/12 08:42:09;;;;;;;9.40;5.68;;;14.90;99.90;;;;;;4971260;28;20030;-71
2023/04/12 08:44:39;;;;;;;10.05;5.68;;;14.80;99.90;;;;;;4964899;28;20026;-72
2023/04/12 08:47:06;;;;;;;7.63;5.35;;;14.80;99.90;;;;;;4969663;28;20035;-71
2023/04/12 08:49:33;;;;;;;8.85;5.70;;;14.90;99.90;;;;;;4974838;28;20046;-71
2023/04/12 08:52:07;;;;;;;8.63;4.80;;;14.80;99.90;;;;;;4968753;28;20043;-71
2023/04/12 08:54:33;;;;;;;14.02;5.35;;;14.90;99.90;;;;;;4969069;28;20035;-72
2023/04/12 08:57:01;;;;;;;12.55;4.90;;;14.90;99.90;;;;;;4975433;28;20031;-71
2023/04/12 08:59:28;;;;;;;8.35;5.18;;;14.90;99.90;;;;;;4967924;28;20027;-71
2023/04/12 09:01:55;;;;;;;9.75;5.40;;;14.80;99.90;;;;;;4969017;28;20111;-71
2023/04/12 09:04:21;;;;;;;8.23;5.03;;;14.90;99.90;;;;;;4971846;28;20065;-70
2023/04/12 09:06:46;;;;;;;9.00;4.90;;;15.10;99.90;;;;;;4974246;28;20031;-71
2023/04/12 09:09:12;;;;;;;10.90;5.57;;;15.00;99.90;;;;;;4969290;28;20043;-71
2023/04/12 09:11:38;;;;;;;10.70;5.20;;;15.10;99.90;;;;;;4963138;28;20031;-71
2023/04/12 09:14:22;;;;;;;11.25;5.38;;;15.10;99.90;;;;;;4970846;28;20433;-71
2023/04/12 09:16:48;;;;;;;8.25;4.70;;;15.20;99.90;;;;;;4974852;28;20367;-72
2023/04/12 09:19:14;;;;;;;8.25;5.22;;;15.20;99.90;;;;;;4969243;28;20027;-72
2023/04/12 09:21:58;;;;;;;7.32;4.35;;;15.40;99.90;;;;;;4971215;28;20054;-72
2023/04/12 09:24:24;;;;;;;10.75;4.90;;;15.40;99.90;;;;;;4962355;28;20033;-71
2023/04/12 09:27:00;;;;;;;8.68;4.00;;;15.60;99.90;;;;;;4942408;28;20110;-71
2023/04/12 09:29:26;;;;;;;10.95;4.55;;;15.70;99.90;;;;;;4953018;28;20030;-71
2023/04/12 09:32:10;;;;;;;17.13;4.43;;;15.70;99.90;;;;;;4966792;28;20035;-72
2023/04/12 09:34:36;;;;;;;11.38;4.03;;;15.80;99.90;;;;;;4973017;28;20101;-71
2023/04/12 09:37:19;;;;;;;10.57;3.45;;;16.00;99.90;;;;;;4964885;28;20046;-72
2023/04/12 09:39:45;;;;;;;7.47;3.80;;;15.80;99.90;;;;;;4965530;28;20376;-72
2023/04/12 09:42:11;;;;;;;15.48;5.28;;;15.90;99.90;;;;;;4967023;28;20031;-72
2023/04/12 09:44:38;;;;;;;12.90;4.38;;;16.10;99.90;;;;;;4961796;28;20035;-71
2023/04/12 09:47:04;;;;;;;11.57;5.32;;;16.20;99.90;;;;;;4965407;28;20396;-71
2023/04/12 09:49:41;;;;;;;10.80;4.22;;;16.20;99.90;;;;;;4967626;28;20027;-71
2023/04/12 09:52:11;;;;;;;11.10;3.97;;;16.30;99.90;;;;;;4970329;28;20023;-72
2023/04/12 09:54:43;;;;;;;12.97;3.97;;;16.60;99.90;;;;;;4963536;28;20023;-72
2023/04/12 09:57:09;;;;;;;9.50;3.83;;;16.80;99.90;;;;;;4965215;28;20074;-71
2023/04/12 09:59:38;;;;;;;7.97;3.92;;;16.90;99.90;;;;;;4972097;28;20034;-71
2023/04/12 10:02:27;;;;;;;8.02;3.55;;;17.00;99.90;;;;;;4965504;28;20027;-73
2023/04/12 10:04:53;;;;;;;9.65;3.53;;;17.20;99.90;;;;;;4963003;28;20035;-73
2023/04/12 10:07:19;;;;;;;9.43;3.50;;;17.30;99.90;;;;;;4968617;28;20498;-73
2023/04/12 10:09:45;;;;;;;5.60;3.08;;;17.40;99.90;;;;;;4966360;28;20125;-71
2023/04/12 10:12:10;;;;;;;9.60;3.90;;;17.50;99.90;;;;;;4968604;28;20046;-72
2023/04/12 10:14:37;;;;;;;5.38;3.58;;;17.70;99.90;;;;;;4972494;28;20054;-71
2023/04/12 10:17:04;;;;;;;10.32;3.40;;;17.70;99.90;;;;;;4963559;28;20133;-72
2023/04/12 10:19:32;;;;;;;8.55;4.00;;;17.70;99.90;;;;;;4968244;28;20027;-71
2023/04/12 10:21:59;;;;;;;9.68;3.45;;;17.50;99.90;;;;;;4965157;28;20035;-72
2023/04/12 10:24:26;;;;;;;7.15;3.88;;;17.60;99.90;;;;;;4970181;28;20563;-72
2023/04/12 10:26:54;;;;;;;10.40;3.97;;;17.70;99.90;;;;;;4967596;28;20014;-72
2023/04/12 10:29:30;;;;;;;11.93;3.63;;;17.80;99.90;;;;;;4963600;28;20027;-71
2023/04/12 10:32:16;;;;;;;5.68;3.55;;;17.80;99.90;;;;;;4972265;28;20057;-71
2023/04/12 10:34:42;;;;;;;6.10;3.70;;;17.70;99.90;;;;;;4972000;28;20031;-71
2023/04/12 10:37:08;;;;;;;6.43;3.25;;;17.60;99.90;;;;;;4963108;28;21008;-71
2023/04/12 10:39:42;;;;;;;9.32;3.58;;;17.60;99.90;;;;;;4969228;28;20133;-71
2023/04/12 10:42:24;;;;;;;11.25;3.58;;;17.60;99.90;;;;;;4968037;28;20032;-71
2023/04/12 10:45:18;;;;;;;11.88;4.38;;;17.50;99.90;;;;;;4966363;28;20022;-71
2023/04/12 10:47:47;;;;;;;9.27;3.38;;;17.60;99.90;;;;;;4959176;28;20023;-70
2023/04/12 10:50:26;;;;;;;14.80;3.40;;;17.80;99.90;;;;;;4970705;28;20031;-71
2023/04/12 10:53:16;;;;;;;7.60;3.05;;;17.80;99.90;;;;;;4964129;28;20035;-71
2023/04/12 10:55:43;;;;;;;6.35;3.42;;;17.90;99.90;;;;;;4973091;28;20058;-71
2023/04/12 10:58:09;;;;;;;8.70;3.70;;;18.20;99.90;;;;;;4965982;28;20034;-71
2023/04/12 11:00:59;;;;;;;9.57;4.05;;;18.40;99.90;;;;;;4972192;28;20100;-71
2023/04/12 11:03:27;;;;;;;9.77;3.30;;;18.50;99.90;;;;;;4969999;28;20023;-71
2023/04/12 11:06:03;;;;;;;7.25;3.65;;;18.50;99.90;;;;;;4971685;28;20034;-71
2023/04/12 11:08:30;;;;;;;11.50;3.45;;;18.40;99.90;;;;;;4966364;28;20038;-71
2023/04/12 11:11:02;;;;;;;13.52;2.70;;;18.50;99.90;;;;;;4970114;28;20400;-71
2023/04/12 11:13:33;;;;;;;10.52;3.08;;;18.60;99.90;;;;;;4973398;28;20371;-71
2023/04/12 11:16:06;;;;;;;5.10;2.58;;;18.40;99.90;;;;;;4966467;28;20051;-71
2023/04/12 11:18:34;;;;;;;9.48;2.75;;;18.30;99.90;;;;;;4966038;28;20090;-70
2023/04/12 11:21:02;;;;;;;8.02;2.70;;;18.20;99.90;;;;;;4970038;28;20574;-71
2023/04/12 11:23:29;;;;;;;5.10;2.88;;;18.20;99.90;;;;;;4966075;28;20022;-71
2023/04/12 11:25:56;;;;;;;7.15;3.17;;;18.30;99.90;;;;;;4967795;28;20115;-71
2023/04/12 11:28:22;;;;;;;5.75;2.47;;;18.30;99.90;;;;;;4964657;28;20105;-72
2023/04/12 11:30:57;;;;;;;6.38;2.70;;;18.30;99.90;;;;;;4966873;28;20039;-71
2023/04/12 11:33:39;;;;;;;5.60;2.53;;;18.30;99.90;;;;;;4962980;28;20031;-70
2023/04/12 11:36:11;;;;;;;5.18;2.65;;;18.20;99.90;;;;;;4965421;28;20093;-71
2023/04/12 11:38:37;;;;;;;11.60;3.17;;;18.10;99.90;;;;;;4966830;28;20023;-72
2023/04/12 11:41:06;;;;;;;7.70;2.67;;;17.90;99.90;;;;;;4970439;28;20115;-71
2023/04/12 11:43:39;;;;;;;5.22;2.78;;;17.80;99.90;;;;;;4967951;28;20015;-71
2023/04/12 11:46:05;;;;;;;5.38;2.42;;;17.80;99.90;;;;;;4973367;28;20059;-71
2023/04/12 11:48:31;;;;;;;5.80;2.92;;;17.50;99.90;;;;;;4967961;28;20034;-71
2023/04/12 11:50:57;;;;;;;5.97;2.85;;;17.30;99.90;;;;;;4971451;28;20031;-71
2023/04/12 11:53:29;;;;;;;7.80;3.03;;;17.20;99.90;;;;;;4970276;28;20031;-71
2023/04/12 11:55:57;;;;;;;7.50;2.80;;;17.10;99.90;;;;;;4970307;28;20038;-71
2023/04/12 11:58:26;;;;;;;4.68;2.42;;;17.00;99.90;;;;;;4958021;28;20019;-71
2023/04/12 12:00:53;;;;;;;6.53;2.85;;;16.90;99.90;;;;;;4976905;28;20023;-71
2023/04/12 12:03:19;;;;;;;8.93;2.90;;;16.80;99.90;;;;;;4974527;28;20045;-71
2023/04/12 12:05:46;;;;;;;8.25;3.10;;;16.80;99.90;;;;;;4970815;28;20054;-71
2023/04/12 12:08:12;;;;;;;9.85;3.45;;;16.70;99.90;;;;;;4970904;28;20027;-71
2023/04/12 12:10:39;;;;;;;8.32;3.38;;;16.60;99.90;;;;;;4971324;28;20125;-71
2023/04/12 12:13:12;;;;;;;12.77;3.60;;;16.50;99.90;;;;;;4973881;28;20384;-72
2023/04/12 12:15:38;;;;;;;6.25;3.25;;;16.50;99.90;;;;;;4975069;28;20507;-71
2023/04/12 12:18:08;;;;;;;7.43;3.00;;;16.40;99.90;;;;;;4971352;28;20062;-72
2023/04/12 12:20:54;;;;;;;6.95;3.85;;;16.40;99.90;;;;;;4967788;28;20039;-71
2023/04/12 12:23:47;;;;;;;6.20;3.50;;;16.30;99.90;;;;;;4975736;28;20502;-71
2023/04/12 12:26:24;;;;;;;9.13;3.20;;;16.20;99.90;;;;;;4980534;28;20030;-71
2023/04/12 12:28:52;;;;;;;11.13;3.60;;;16.20;99.90;;;;;;4960393;28;20094;-72
2023/04/12 12:31:26;;;;;;;8.15;3.40;;;16.10;99.90;;;;;;4974578;28;20042;-71
2023/04/12 12:33:56;;;;;;;5.47;3.53;;;16.10;99.90;;;;;;4975897;28;20019;-71
2023/04/12 12:36:32;;;;;;;7.75;3.58;;;16.00;99.90;;;;;;4972043;28;20027;-71
2023/04/12 12:39:09;;;;;;;7.45;3.60;;;15.90;99.90;;;;;;4967078;28;20181;-71
2023/04/12 12:41:36;;;;;;;6.72;3.65;;;15.80;99.90;;;;;;4972678;28;20023;-71
2023/04/12 12:44:02;;;;;;;8.30;4.47;;;15.60;99.90;;;;;;4970637;28;20026;-71
2023/04/12 12:46:28;;;;;;;12.75;4.47;;;15.30;99.90;;;;;;4971008;28;20039;-71
2023/04/12 12:48:54;;;;;;;13.20;4.22;;;15.20;99.90;;;;;;4970069;28;20094;-70
2023/04/12 12:51:20;;;;;;;12.50;4.03;;;15.00;99.90;;;;;;4971056;28;20027;-71
2023/04/12 12:53:46;;;;;;;10.55;4.85;;;14.80;99.90;;;;;;4976586;28;20093;-71